createdAt,value
2024-05-09T00:02:02.244Z,95250.13
2024-05-09T00:05:05.042Z,95254.41
2024-05-09T00:08:08.832Z,95249.44
2024-05-09T00:11:14.408Z,95244.66
2024-05-09T00:14:16.934Z,95250.63
2024-05-09T00:17:19.557Z,95251.28
2024-05-09T00:20:28.135Z,95244.19
2024-05-09T00:23:36.011Z,95247.28
2024-05-09T00:26:38.647Z,95252.59
2024-05-09T00:29:41.101Z,95250.13
2024-05-09T00:32:43.712Z,95245.53
2024-05-09T00:35:46.287Z,95243.84
2024-05-09T00:38:48.753Z,95242.69
2024-05-09T00:41:51.204Z,95249.66
2024-05-09T00:44:53.646Z,95252.47
2024-05-09T00:47:56.501Z,95254.78
2024-05-09T00:50:59.371Z,95249.81
2024-05-09T00:54:02.535Z,95249.13
2024-05-09T00:57:05.616Z,95252.09
2024-05-09T01:00:18.449Z,95249.66
2024-05-09T01:03:29.492Z,95245.00
2024-05-09T01:06:32.133Z,95244.53
2024-05-09T01:09:34.570Z,95242.88
2024-05-09T01:12:37.104Z,95249.66
2024-05-09T01:15:39.577Z,95242.22
2024-05-09T01:18:43.176Z,95252.94
2024-05-09T01:21:45.739Z,95252.97
2024-05-09T01:24:48.246Z,95240.06
2024-05-09T01:27:50.691Z,95246.53
2024-05-09T01:30:53.144Z,95241.53
2024-05-09T01:33:55.775Z,95244.53
2024-05-09T01:36:58.399Z,95248.16
2024-05-09T01:40:00.874Z,95234.44
2024-05-09T01:43:03.323Z,95249.00
2024-05-09T01:46:05.800Z,95245.84
2024-05-09T01:49:08.402Z,95241.06
2024-05-09T01:52:10.894Z,95244.69
2024-05-09T01:55:13.355Z,95243.19
2024-05-09T01:58:16.478Z,95248.31
2024-05-09T02:01:18.962Z,95239.56
2024-05-09T02:04:21.607Z,95245.16
2024-05-09T02:07:24.201Z,95234.28
2024-05-09T02:10:32.310Z,95229.19
2024-05-09T02:13:35.675Z,95234.28
2024-05-09T02:16:38.148Z,95236.59
2024-05-09T02:19:40.666Z,95229.66
2024-05-09T02:22:43.230Z,95234.31
2024-05-09T02:25:45.769Z,95229.16
2024-05-09T02:28:48.313Z,95230.16
2024-05-09T02:31:50.859Z,95222.75
2024-05-09T02:34:53.408Z,95234.59
2024-05-09T02:37:55.957Z,95232.78
2024-05-09T02:40:58.538Z,95237.41
2024-05-09T02:44:01.037Z,95239.53
2024-05-09T02:47:03.558Z,95230.94
2024-05-09T02:50:08.160Z,95228.97
2024-05-09T02:53:14.752Z,95232.63
2024-05-09T02:56:17.349Z,95232.63
2024-05-09T02:59:19.850Z,95238.06
2024-05-09T03:02:22.529Z,95233.94
2024-05-09T03:05:25.609Z,95233.28
2024-05-09T03:08:28.156Z,95239.22
2024-05-09T03:11:30.747Z,95242.00
2024-05-09T03:14:33.240Z,95244.34
2024-05-09T03:17:35.887Z,95237.38
2024-05-09T03:20:39.144Z,95233.25
2024-05-09T03:23:43.034Z,95243.66
2024-05-09T03:26:45.765Z,95239.38
2024-05-09T03:29:48.216Z,95234.75
2024-05-09T03:32:50.872Z,95239.88
2024-05-09T03:35:53.386Z,95234.94
2024-05-09T03:38:55.836Z,95243.84
2024-05-09T03:41:58.284Z,95235.25
2024-05-09T03:45:00.890Z,95239.22
2024-05-09T03:48:03.531Z,95245.97
2024-05-09T03:51:06.078Z,95251.59
2024-05-09T03:54:08.558Z,95250.97
2024-05-09T03:57:11.036Z,95246.19
2024-05-09T04:00:18.271Z,95245.19
2024-05-09T04:03:28.791Z,95245.84
2024-05-09T04:06:31.385Z,95237.22
2024-05-09T04:09:33.786Z,95251.09
2024-05-09T04:12:36.547Z,95248.25
2024-05-09T04:15:39.548Z,95246.78
2024-05-09T04:18:42.036Z,95247.38
2024-05-09T04:21:44.552Z,95247.66
2024-05-09T04:24:47.666Z,95235.53
2024-05-09T04:27:50.166Z,95250.16
2024-05-09T04:30:52.589Z,95252.06
2024-05-09T04:33:55.188Z,95246.75
2024-05-09T04:36:57.721Z,95242.84
2024-05-09T04:40:00.423Z,95252.97
2024-05-09T04:43:02.860Z,95245.47
2024-05-09T04:46:05.693Z,95246.03
2024-05-09T04:49:08.490Z,95244.16
2024-05-09T04:52:11.105Z,95247.25
2024-05-09T04:55:13.530Z,95254.34
2024-05-09T04:58:16.007Z,95250.19
2024-05-09T05:01:18.514Z,95260.28
2024-05-09T05:04:21.037Z,95248.22
2024-05-09T05:07:23.503Z,95266.19
2024-05-09T05:10:33.553Z,95255.47
2024-05-09T05:13:41.455Z,95258.00
2024-05-09T05:16:44.266Z,95258.66
2024-05-09T05:19:46.856Z,95262.84
2024-05-09T05:22:49.405Z,95252.31
2024-05-09T05:25:53.462Z,95264.59
2024-05-09T05:28:56.577Z,95270.19
2024-05-09T05:31:59.210Z,95255.47
2024-05-09T05:35:01.828Z,95254.41
2024-05-09T05:38:05.058Z,95249.47
2024-05-09T05:41:07.666Z,95250.13
2024-05-09T05:44:14.796Z,95260.97
2024-05-09T05:47:18.070Z,95265.50
2024-05-09T05:50:27.767Z,95259.75
2024-05-09T05:53:37.332Z,95265.72
2024-05-09T05:56:39.950Z,95261.81
2024-05-09T05:59:42.464Z,95263.06
2024-05-09T06:02:45.168Z,95270.66
2024-05-09T06:05:47.775Z,95259.50
2024-05-09T06:08:50.332Z,95266.94
2024-05-09T06:11:52.977Z,95267.91
2024-05-09T06:14:55.559Z,95272.50
2024-05-09T06:17:58.331Z,95264.38
2024-05-09T06:21:01.242Z,95252.84
2024-05-09T06:24:06.524Z,95275.16
2024-05-09T06:27:09.386Z,95265.28
2024-05-09T06:30:24.854Z,95275.44
2024-05-09T06:33:32.169Z,95283.34
2024-05-09T06:36:34.784Z,95275.59
2024-05-09T06:39:37.298Z,95281.22
2024-05-09T06:42:39.747Z,95284.69
2024-05-09T06:45:42.416Z,95282.50
2024-05-09T06:49:20.383Z,95287.88
2024-05-09T06:52:22.962Z,95300.03
2024-05-09T06:55:25.518Z,95293.41
2024-05-09T06:58:28.021Z,95292.34
2024-05-09T07:01:30.533Z,95290.88
2024-05-09T07:04:33.190Z,95304.09
2024-05-09T07:07:36.365Z,95295.28
2024-05-09T07:10:38.949Z,95291.03
2024-05-09T07:13:41.505Z,95297.47
2024-05-09T07:16:44.066Z,95301.41
2024-05-09T07:19:46.772Z,95301.22
2024-05-09T07:22:49.453Z,95304.44
2024-05-09T07:25:52.046Z,95312.78
2024-05-09T07:28:56.186Z,95316.88
2024-05-09T07:32:01.075Z,95325.84
2024-05-09T07:35:03.696Z,95323.38
2024-05-09T07:38:06.253Z,95321.06
2024-05-09T07:41:08.906Z,95319.28
2024-05-09T07:44:11.532Z,95309.81
2024-05-09T07:48:28.284Z,95312.59
2024-05-09T07:52:32.986Z,95317.59
2024-05-09T07:54:00.988Z,95309.72
2024-05-09T07:57:04.458Z,95318.97
2024-05-09T08:00:11.929Z,95313.66
2024-05-09T08:03:31.533Z,95316.25
2024-05-09T08:06:34.146Z,95317.66
2024-05-09T08:09:38.673Z,95313.41
2024-05-09T08:12:41.313Z,95324.53
2024-05-09T08:15:43.983Z,95304.81
2024-05-09T08:18:46.697Z,95307.81
2024-05-09T08:21:49.579Z,95311.25
2024-05-09T08:24:52.189Z,95304.06
2024-05-09T08:27:54.859Z,95316.16
2024-05-09T08:30:57.497Z,95314.09
2024-05-09T08:34:00.300Z,95318.47
2024-05-09T08:37:10.168Z,95320.09
2024-05-09T08:40:24.192Z,95315.31
2024-05-09T08:43:33.923Z,95327.75
2024-05-09T08:46:38.020Z,95327.53
2024-05-09T08:49:41.697Z,95343.28
2024-05-09T08:52:45.092Z,95347.66
2024-05-09T08:55:47.953Z,95345.75
2024-05-09T08:58:56.641Z,95329.97
2024-05-09T09:02:00.241Z,95358.25
2024-05-09T09:05:17.057Z,95343.72
2024-05-09T09:08:20.892Z,95345.56
2024-05-09T09:11:23.708Z,95354.78
2024-05-09T09:14:26.248Z,95346.97
2024-05-09T09:17:28.855Z,95339.50
2024-05-09T09:20:36.432Z,95351.72
2024-05-09T09:23:40.301Z,95340.19
2024-05-09T09:26:45.775Z,95348.69
2024-05-09T09:29:49.448Z,95339.91
2024-05-09T09:32:52.054Z,95352.91
2024-05-09T09:35:55.257Z,95335.56
2024-05-09T09:38:58.749Z,95344.28
2024-05-09T09:42:04.940Z,95330.72
2024-05-09T09:45:07.901Z,95349.41
2024-05-09T09:48:15.325Z,95348.50
2024-05-09T09:51:20.726Z,95346.53
2024-05-09T09:54:25.726Z,95352.28
2024-05-09T09:57:29.628Z,95353.47
2024-05-09T10:00:36.585Z,95341.16
2024-05-09T10:03:45.041Z,95337.97
2024-05-09T10:06:53.394Z,95337.66
2024-05-09T10:09:58.648Z,95334.97
2024-05-09T10:13:06.825Z,95341.56
2024-05-09T10:16:11.589Z,95339.31
2024-05-09T10:19:30.299Z,95335.50
2024-05-09T10:22:37.111Z,95330.09
2024-05-09T10:25:44.449Z,95337.88
2024-05-09T10:28:51.922Z,95325.09
2024-05-09T10:31:54.791Z,95329.72
2024-05-09T10:35:14.967Z,95342.81
2024-05-09T10:38:23.218Z,95343.25
2024-05-09T10:41:31.118Z,95330.19
2024-05-09T10:44:38.586Z,95337.75
2024-05-09T10:47:42.284Z,95352.72
2024-05-09T10:50:51.495Z,95321.88
2024-05-09T10:53:59.035Z,95334.50
2024-05-09T10:57:04.245Z,95320.56
2024-05-09T11:00:15.780Z,95338.78
2024-05-09T11:03:32.282Z,95331.38
2024-05-09T11:06:39.102Z,95317.34
2024-05-09T11:09:45.891Z,95318.94
2024-05-09T11:12:56.129Z,95316.88
2024-05-09T11:16:25.408Z,95330.09
2024-05-09T11:19:38.443Z,95320.00
2024-05-09T11:22:41.308Z,95310.94
2024-05-09T11:25:51.203Z,95323.09
2024-05-09T11:28:54.182Z,95328.41
2024-05-09T11:32:01.612Z,95303.50
2024-05-09T11:35:04.279Z,95310.69
2024-05-09T11:38:07.207Z,95321.97
2024-05-09T11:41:16.830Z,95303.72
2024-05-09T11:44:19.489Z,95289.28
2024-05-09T11:47:24.735Z,95286.91
2024-05-09T11:50:32.802Z,95299.59
2024-05-09T11:53:38.280Z,95298.56
2024-05-09T11:56:40.855Z,95298.44
2024-05-09T11:59:43.441Z,95305.28
2024-05-09T12:02:46.095Z,95291.38
2024-05-09T12:05:48.808Z,95283.72
2024-05-09T12:08:51.699Z,95290.56
2024-05-09T12:11:54.338Z,95291.13
2024-05-09T12:14:56.894Z,95299.25
2024-05-09T12:18:02.738Z,95275.84
2024-05-09T12:21:06.779Z,95289.44
2024-05-09T12:24:12.553Z,95283.19
2024-05-09T12:27:16.570Z,95273.63
2024-05-09T12:30:32.098Z,95278.81
2024-05-09T12:33:39.755Z,95295.59
2024-05-09T12:36:45.770Z,95276.72
2024-05-09T12:39:48.386Z,95274.97
2024-05-09T12:42:51.114Z,95268.56
2024-05-09T12:45:53.763Z,95272.03
2024-05-09T12:48:57.145Z,95264.31
2024-05-09T12:52:00.530Z,95271.94
2024-05-09T12:55:04.076Z,95280.75
2024-05-09T12:58:06.981Z,95275.53
2024-05-09T13:01:09.599Z,95297.53
2024-05-09T13:04:12.371Z,95286.09
2024-05-09T13:07:15.815Z,95288.16
2024-05-09T13:10:28.677Z,95278.38
2024-05-09T13:13:34.826Z,95276.75
2024-05-09T13:16:37.507Z,95276.44
2024-05-09T13:19:40.091Z,95277.84
2024-05-09T13:22:44.472Z,95267.84
2024-05-09T13:25:46.987Z,95275.91
2024-05-09T13:28:49.461Z,95268.13
2024-05-09T13:31:51.927Z,95274.19
2024-05-09T13:34:54.408Z,95269.13
2024-05-09T13:37:56.911Z,95269.00
2024-05-09T13:40:59.443Z,95251.13
2024-05-09T13:44:01.987Z,95248.63
2024-05-09T13:47:04.710Z,95249.97
2024-05-09T13:50:11.485Z,95254.38
2024-05-09T13:53:16.887Z,95250.84
2024-05-09T13:56:19.327Z,95256.94
2024-05-09T13:59:21.832Z,95247.47
2024-05-09T14:02:24.463Z,95247.09
2024-05-09T14:05:27.169Z,95239.31
2024-05-09T14:08:29.776Z,95243.00
2024-05-09T14:11:32.348Z,95250.91
2024-05-09T14:14:34.800Z,95264.47
2024-05-09T14:17:37.989Z,95248.66
2024-05-09T14:20:41.089Z,95253.84
2024-05-09T14:23:44.264Z,95247.63
2024-05-09T14:26:47.388Z,95243.84
2024-05-09T14:29:49.948Z,95242.66
2024-05-09T14:32:52.517Z,95242.00
2024-05-09T14:35:55.217Z,95253.16
2024-05-09T14:38:57.852Z,95248.63
2024-05-09T14:42:01.083Z,95257.78
2024-05-09T14:45:03.698Z,95249.44
2024-05-09T14:48:07.467Z,95250.25
2024-05-09T14:51:10.081Z,95248.50
2024-05-09T14:54:12.678Z,95244.72
2024-05-09T14:57:15.703Z,95245.47
2024-05-09T15:00:26.137Z,95245.13
2024-05-09T15:03:32.254Z,95242.28
2024-05-09T15:06:35.246Z,95257.47
2024-05-09T15:09:38.026Z,95241.47
2024-05-09T15:12:40.663Z,95231.47
2024-05-09T15:15:43.336Z,95243.81
2024-05-09T15:18:46.060Z,95240.31
2024-05-09T15:21:48.942Z,95238.69
2024-05-09T15:24:53.786Z,95251.78
2024-05-09T15:27:56.704Z,95240.31
2024-05-09T15:31:00.466Z,95235.28
2024-05-09T15:34:03.207Z,95255.78
2024-05-09T15:37:05.870Z,95241.19
2024-05-09T15:40:15.392Z,95237.59
2024-05-09T15:43:26.909Z,95244.78
2024-05-09T15:46:37.144Z,95242.53
2024-05-09T15:49:39.956Z,95235.63
2024-05-09T15:52:42.514Z,95225.84
2024-05-09T15:55:45.057Z,95232.22
2024-05-09T15:58:47.557Z,95242.34
2024-05-09T16:01:50.164Z,95242.41
2024-05-09T16:04:53.491Z,95241.56
2024-05-09T16:07:56.689Z,95237.50
2024-05-09T16:10:59.397Z,95251.91
2024-05-09T16:14:01.962Z,95237.94
2024-05-09T16:17:05.093Z,95242.44
2024-05-09T16:20:12.255Z,95247.38
2024-05-09T16:23:17.863Z,95244.16
2024-05-09T16:26:20.393Z,95245.84
2024-05-09T16:29:22.880Z,95246.56
2024-05-09T16:32:25.466Z,95252.19
2024-05-09T16:35:28.085Z,95255.91
2024-05-09T16:38:30.634Z,95252.44
2024-05-09T16:41:33.264Z,95256.22
2024-05-09T16:44:35.895Z,95251.88
2024-05-09T16:47:38.750Z,95249.19
2024-05-09T16:50:41.432Z,95256.63
2024-05-09T16:53:44.007Z,95255.00
2024-05-09T16:56:46.502Z,95255.63
2024-05-09T16:59:49.003Z,95254.66
2024-05-09T17:02:54.297Z,95245.56
2024-05-09T17:05:56.917Z,95246.81
2024-05-09T17:09:08.103Z,95245.59
2024-05-09T17:12:14.038Z,95254.00
2024-05-09T17:15:17.523Z,95258.34
2024-05-09T17:18:20.112Z,95250.72
2024-05-09T17:21:22.904Z,95265.72
2024-05-09T17:24:26.651Z,95263.25
2024-05-09T17:27:32.152Z,95250.06
2024-05-09T17:30:37.217Z,95258.72
2024-05-09T17:33:42.879Z,95264.41
2024-05-09T17:36:45.565Z,95266.25
2024-05-09T17:39:48.164Z,95267.25
2024-05-09T17:42:50.801Z,95256.38
2024-05-09T17:45:53.700Z,95270.69
2024-05-09T17:48:59.594Z,95271.69
2024-05-09T17:52:03.511Z,95264.00
2024-05-09T17:55:08.175Z,95274.66
2024-05-09T17:58:12.344Z,95279.53
2024-05-09T18:01:15.025Z,95278.69
2024-05-09T18:04:18.463Z,95274.34
2024-05-09T18:07:21.687Z,95283.38
2024-05-09T18:10:32.800Z,95277.00
2024-05-09T18:13:39.550Z,95290.59
2024-05-09T18:16:42.799Z,95289.59
2024-05-09T18:19:45.433Z,95292.34
2024-05-09T18:22:48.537Z,95292.97
2024-05-09T18:25:54.604Z,95299.47
2024-05-09T18:28:58.067Z,95296.34
2024-05-09T18:32:00.601Z,95306.63
2024-05-09T18:35:03.806Z,95315.69
2024-05-09T18:38:06.802Z,95305.03
2024-05-09T18:41:09.899Z,95316.66
2024-05-09T18:44:13.062Z,95317.84
2024-05-09T18:47:19.389Z,95320.03
2024-05-09T18:50:31.931Z,95328.25
2024-05-09T18:53:38.776Z,95327.88
2024-05-09T18:56:41.547Z,95334.03
2024-05-09T18:59:44.256Z,95342.78
2024-05-09T19:02:47.474Z,95347.03
2024-05-09T19:05:50.688Z,95349.75
2024-05-09T19:08:53.349Z,95353.31
2024-05-09T19:11:56.295Z,95351.03
2024-05-09T19:14:59.692Z,95353.88
2024-05-09T19:18:02.794Z,95350.13
2024-05-09T19:21:08.682Z,95356.03
2024-05-09T19:24:12.219Z,95360.59
2024-05-09T19:27:15.021Z,95369.03
2024-05-09T19:30:28.988Z,95368.94
2024-05-09T19:33:39.153Z,95367.72
2024-05-09T19:36:42.197Z,95376.13
2024-05-09T19:39:45.248Z,95376.78
2024-05-09T19:42:48.138Z,95379.09
2024-05-09T19:45:50.919Z,95382.00
2024-05-09T19:48:53.772Z,95379.34
2024-05-09T19:51:56.814Z,95382.13
2024-05-09T19:54:59.385Z,95382.44
2024-05-09T19:58:07.148Z,95385.38
2024-05-09T20:01:11.453Z,95386.38
2024-05-09T20:04:14.223Z,95385.34
2024-05-09T20:07:16.830Z,95386.47
2024-05-09T20:10:24.131Z,95389.41
2024-05-09T20:13:32.561Z,95395.63
2024-05-09T20:16:35.930Z,95392.91
2024-05-09T20:19:39.564Z,95403.59
2024-05-09T20:22:42.496Z,95410.00
2024-05-09T20:25:45.588Z,95406.78
2024-05-09T20:28:48.856Z,95407.34
2024-05-09T20:31:52.264Z,95408.34
2024-05-09T20:34:54.742Z,95413.38
2024-05-09T20:37:57.352Z,95415.03
2024-05-09T20:41:00.031Z,95414.50
2024-05-09T20:44:05.757Z,95416.41
2024-05-09T20:47:08.509Z,95415.22
2024-05-09T20:50:20.358Z,95417.88
2024-05-09T20:53:30.964Z,95409.09
2024-05-09T20:56:33.434Z,95412.53
2024-05-09T20:59:38.087Z,95409.88
2024-05-09T21:02:42.724Z,95407.44
2024-05-09T21:05:45.780Z,95404.22
2024-05-09T21:08:48.577Z,95409.72
2024-05-09T21:11:51.027Z,95411.34
2024-05-09T21:14:54.308Z,95400.00
2024-05-09T21:17:56.770Z,95407.78
2024-05-09T21:20:59.224Z,95404.50
2024-05-09T21:24:01.778Z,95407.84
2024-05-09T21:27:04.361Z,95414.09
2024-05-09T21:30:12.902Z,95413.63
2024-05-09T21:33:20.946Z,95420.47
2024-05-09T21:36:23.478Z,95426.13
2024-05-09T21:39:25.966Z,95428.28
2024-05-09T21:42:28.422Z,95434.94
2024-05-09T21:45:30.822Z,95428.78
2024-05-09T21:48:33.633Z,95421.06
2024-05-09T21:51:36.166Z,95426.81
2024-05-09T21:54:38.672Z,95435.50
2024-05-09T21:57:41.144Z,95438.16
2024-05-09T22:00:45.746Z,95430.31
2024-05-09T22:03:48.742Z,95436.97
2024-05-09T22:06:51.755Z,95436.31
2024-05-09T22:09:54.247Z,95440.56
2024-05-09T22:12:56.726Z,95431.81
2024-05-09T22:15:59.304Z,95429.50
2024-05-09T22:19:01.960Z,95439.13
2024-05-09T22:22:05.024Z,95429.31
2024-05-09T22:25:07.954Z,95434.69
2024-05-09T22:28:10.482Z,95432.81
2024-05-09T22:31:13.508Z,95435.84
2024-05-09T22:34:16.103Z,95432.88
2024-05-09T22:37:18.708Z,95434.22
2024-05-09T22:40:29.465Z,95444.81
2024-05-09T22:43:41.128Z,95445.16
2024-05-09T22:46:43.651Z,95440.88
2024-05-09T22:49:46.153Z,95444.16
2024-05-09T22:52:48.653Z,95435.25
2024-05-09T22:55:51.181Z,95430.28
2024-05-09T22:58:53.687Z,95434.25
2024-05-09T23:01:56.623Z,95440.34
2024-05-09T23:04:59.197Z,95445.16
2024-05-09T23:08:02.872Z,95436.06
2024-05-09T23:11:05.887Z,95441.50
2024-05-09T23:14:08.417Z,95438.03
2024-05-09T23:17:10.879Z,95437.34
2024-05-09T23:20:14.838Z,95433.22
2024-05-09T23:23:17.501Z,95432.91
2024-05-09T23:26:19.883Z,95435.19
2024-05-09T23:29:22.338Z,95432.91
2024-05-09T23:32:24.874Z,95428.59
2024-05-09T23:35:27.324Z,95424.13
2024-05-09T23:38:29.752Z,95423.13
2024-05-09T23:41:32.180Z,95425.28
2024-05-09T23:44:34.669Z,95414.22
2024-05-09T23:47:37.330Z,95412.91
2024-05-09T23:50:40.718Z,95415.38
2024-05-09T23:53:47.137Z,95411.19
2024-05-09T23:56:49.615Z,95409.72
2024-05-09T23:59:52.125Z,95419.63
